Terminal Aerodrome Forecast
Issued by NWS

Home | Current Version | Previous Version | Text Only | Print | Product List | Glossary On
Versions: 1 2 3 4 5 6 7 8 9 10 11 12 13 14 15 16
000
FTUS42 KTBW 311100
TAFPGD
TAF
KPGD 311121Z 3112/0112 35005KT P6SM VCSH SCT030 BKN080
     FM311400 33008KT P6SM SCT040
     FM311700 30011KT P6SM FEW040
     FM312300 32006KT P6SM SKC
     FM011100 33010KT P6SM SCT040=

USA.gov is the U.S. government's official web portal to all federal, state and local government web resources and services.